createdAt,value
2022-12-01T00:01:18.747Z,90.33
2022-12-01T00:03:45.488Z,90.17
2022-12-01T00:06:16.379Z,90.14
2022-12-01T00:09:03.109Z,90.37
2022-12-01T00:11:29.989Z,90.59
2022-12-01T00:13:56.720Z,90.50
2022-12-01T00:16:23.479Z,90.81
2022-12-01T00:18:51.717Z,91.07
2022-12-01T00:21:20.680Z,90.69
2022-12-01T00:23:49.449Z,90.48
2022-12-01T00:26:17.948Z,90.62
2022-12-01T00:28:48.099Z,90.50
2022-12-01T00:31:14.795Z,90.88
2022-12-01T00:33:41.466Z,90.95
2022-12-01T00:36:08.449Z,91.06
2022-12-01T00:38:35.783Z,91.07
2022-12-01T00:41:03.295Z,90.87
2022-12-01T00:43:30.347Z,90.63
2022-12-01T00:45:57.504Z,90.47
2022-12-01T00:48:24.301Z,90.64
2022-12-01T00:50:52.649Z,90.71
2022-12-01T00:53:19.485Z,90.96
2022-12-01T00:55:46.197Z,91.02
2022-12-01T00:58:12.939Z,90.75
2022-12-01T01:00:39.570Z,90.98
2022-12-01T01:03:07.364Z,90.81
2022-12-01T01:05:38.334Z,91.05
2022-12-01T01:08:12.873Z,90.93
2022-12-01T01:10:40.431Z,91.33
2022-12-01T01:13:07.169Z,91.24
2022-12-01T01:15:34.724Z,91.06
2022-12-01T01:18:01.752Z,90.91
2022-12-01T01:20:28.540Z,91.02
2022-12-01T01:22:55.282Z,91.23
2022-12-01T01:25:22.863Z,91.14
2022-12-01T01:27:49.767Z,91.29
2022-12-01T01:30:17.003Z,91.27
2022-12-01T01:32:43.623Z,91.52
2022-12-01T01:35:10.446Z,91.50
2022-12-01T01:37:37.069Z,91.63
2022-12-01T01:40:04.044Z,91.54
2022-12-01T01:42:30.696Z,91.66
2022-12-01T01:44:58.703Z,91.67
2022-12-01T01:47:32.696Z,91.38
2022-12-01T01:50:06.326Z,91.25
2022-12-01T01:52:38.995Z,91.63
2022-12-01T01:55:06.303Z,91.32
2022-12-01T01:57:34.851Z,91.50
2022-12-01T02:00:09.263Z,91.72
2022-12-01T02:02:43.584Z,91.57
2022-12-01T02:05:13.773Z,91.61
2022-12-01T02:07:42.018Z,91.62
2022-12-01T02:10:12.663Z,91.88
2022-12-01T02:12:54.324Z,91.99
2022-12-01T02:15:44.656Z,92.11
2022-12-01T02:18:11.314Z,91.76
2022-12-01T02:21:05.857Z,91.67
2022-12-01T02:23:54.028Z,91.63
2022-12-01T02:26:33.710Z,91.65
2022-12-01T02:29:19.085Z,91.82
2022-12-01T02:32:06.956Z,91.75
2022-12-01T02:34:59.563Z,91.99
2022-12-01T02:37:36.401Z,91.81
2022-12-01T02:40:19.016Z,91.57
2022-12-01T02:42:59.869Z,91.51
2022-12-01T02:45:41.716Z,91.43
2022-12-01T02:48:26.804Z,91.15
2022-12-01T02:50:56.424Z,91.09
2022-12-01T02:53:23.263Z,91.13
2022-12-01T02:55:52.854Z,90.97
2022-12-01T02:58:20.510Z,90.94
2022-12-01T03:01:13.664Z,91.18
2022-12-01T03:04:22.263Z,91.54
2022-12-01T03:07:35.320Z,91.68
2022-12-01T03:10:25.769Z,92.04
2022-12-01T03:13:04.281Z,91.40
2022-12-01T03:15:57.058Z,90.94
2022-12-01T03:18:26.507Z,90.97
2022-12-01T03:21:02.067Z,90.99
2022-12-01T03:23:33.501Z,91.31
2022-12-01T03:26:03.878Z,91.60
2022-12-01T03:28:35.194Z,92.00
2022-12-01T03:31:07.514Z,92.29
2022-12-01T03:33:43.398Z,92.33
2022-12-01T03:36:19.725Z,92.53
2022-12-01T03:38:52.676Z,92.71
2022-12-01T03:41:26.291Z,92.44
2022-12-01T03:44:01.303Z,92.33
2022-12-01T03:46:53.966Z,92.05
2022-12-01T03:49:24.751Z,92.16
2022-12-01T03:52:00.409Z,92.06
2022-12-01T03:54:35.939Z,92.03
2022-12-01T03:57:08.468Z,91.87
2022-12-01T03:59:37.127Z,92.05
2022-12-01T04:02:06.786Z,92.22
2022-12-01T04:04:33.548Z,92.32
2022-12-01T04:07:00.501Z,92.11
2022-12-01T04:09:27.186Z,92.17
2022-12-01T04:12:12.627Z,92.13
2022-12-01T04:14:39.227Z,92.27
2022-12-01T04:17:05.854Z,92.12
2022-12-01T04:19:32.530Z,92.07
2022-12-01T04:21:59.140Z,91.68
2022-12-01T04:24:25.759Z,91.66
2022-12-01T04:26:52.452Z,91.69
2022-12-01T04:29:19.157Z,91.55
2022-12-01T04:31:45.872Z,91.61
2022-12-01T04:34:12.543Z,91.42
2022-12-01T04:36:39.227Z,91.37
2022-12-01T04:39:06.049Z,91.51
2022-12-01T04:41:32.658Z,91.44
2022-12-01T04:43:59.258Z,91.16
2022-12-01T04:46:26.255Z,91.33
2022-12-01T04:48:52.997Z,91.33
2022-12-01T04:51:19.904Z,91.51
2022-12-01T04:53:46.650Z,91.61
2022-12-01T04:56:13.405Z,91.70
2022-12-01T04:58:41.250Z,91.35
2022-12-01T05:01:11.080Z,91.63
2022-12-01T05:03:43.934Z,91.46
2022-12-01T05:06:20.198Z,91.49
2022-12-01T05:08:47.593Z,91.61
2022-12-01T05:11:15.208Z,91.62
2022-12-01T05:13:44.183Z,91.63
2022-12-01T05:16:20.203Z,91.66
2022-12-01T05:19:12.137Z,91.69
2022-12-01T05:21:39.811Z,91.87
2022-12-01T05:24:07.363Z,91.67
2022-12-01T05:26:34.183Z,91.87
2022-12-01T05:29:01.113Z,92.26
2022-12-01T05:31:27.694Z,92.24
2022-12-01T05:33:54.330Z,92.77
2022-12-01T05:36:20.981Z,92.86
2022-12-01T05:38:47.661Z,92.92
2022-12-01T05:41:14.480Z,92.82
2022-12-01T05:43:41.288Z,92.87
2022-12-01T05:46:08.209Z,92.88
2022-12-01T05:48:35.045Z,92.79
2022-12-01T05:51:09.250Z,92.29
2022-12-01T05:53:35.996Z,92.43
2022-12-01T05:56:02.654Z,92.01
2022-12-01T05:58:29.288Z,92.37
2022-12-01T06:00:55.865Z,92.40
2022-12-01T06:03:22.719Z,92.34
2022-12-01T06:05:49.527Z,92.70
2022-12-01T06:08:16.173Z,92.74
2022-12-01T06:10:43.330Z,92.44
2022-12-01T06:13:10.100Z,92.28
2022-12-01T06:15:36.678Z,91.98
2022-12-01T06:18:03.309Z,92.09
2022-12-01T06:20:29.957Z,91.93
2022-12-01T06:22:56.613Z,91.86
2022-12-01T06:25:23.299Z,92.01
2022-12-01T06:27:49.899Z,91.42
2022-12-01T06:30:16.726Z,91.36
2022-12-01T06:32:43.259Z,91.24
2022-12-01T06:35:09.923Z,91.56
2022-12-01T06:37:36.540Z,91.39
2022-12-01T06:40:04.613Z,91.12
2022-12-01T06:42:32.399Z,91.15
2022-12-01T06:44:59.044Z,91.00
2022-12-01T06:47:25.669Z,90.84
2022-12-01T06:49:52.784Z,90.75
2022-12-01T06:52:19.457Z,90.80
2022-12-01T06:54:46.242Z,90.64
2022-12-01T06:57:13.209Z,90.63
2022-12-01T06:59:39.900Z,90.42
2022-12-01T07:02:06.717Z,90.36
2022-12-01T07:04:33.611Z,90.45
2022-12-01T07:07:05.207Z,90.51
2022-12-01T07:09:31.791Z,90.51
2022-12-01T07:11:58.499Z,90.51
2022-12-01T07:14:26.819Z,90.36
2022-12-01T07:16:53.738Z,90.16
2022-12-01T07:19:20.393Z,90.09
2022-12-01T07:21:46.979Z,89.71
2022-12-01T07:24:14.039Z,89.60
2022-12-01T07:26:41.558Z,89.67
2022-12-01T07:29:09.425Z,89.31
2022-12-01T07:31:37.114Z,89.31
2022-12-01T07:34:04.908Z,89.19
2022-12-01T07:36:31.577Z,89.27
2022-12-01T07:38:58.275Z,89.11
2022-12-01T07:41:27.744Z,89.16
2022-12-01T07:43:55.344Z,89.33
2022-12-01T07:46:28.605Z,89.25
2022-12-01T07:48:56.657Z,89.06
2022-12-01T07:51:24.751Z,89.06
2022-12-01T07:53:52.412Z,88.67
2022-12-01T07:56:47.121Z,88.66
2022-12-01T07:59:13.976Z,88.56
2022-12-01T08:01:44.692Z,88.51
2022-12-01T08:04:12.105Z,88.54
2022-12-01T08:06:39.124Z,88.50
2022-12-01T08:09:06.029Z,88.31
2022-12-01T08:11:32.669Z,88.49
2022-12-01T08:13:59.318Z,88.36
2022-12-01T08:16:26.067Z,88.04
2022-12-01T08:18:53.299Z,87.82
2022-12-01T08:21:21.942Z,87.46
2022-12-01T08:23:51.979Z,87.50
2022-12-01T08:26:19.654Z,87.30
2022-12-01T08:28:46.904Z,86.85
2022-12-01T08:31:27.456Z,87.09
2022-12-01T08:33:58.000Z,86.97
2022-12-01T08:36:25.871Z,86.83
2022-12-01T08:38:54.367Z,86.84
2022-12-01T08:41:24.821Z,86.28
2022-12-01T08:44:00.099Z,85.92
2022-12-01T08:46:31.803Z,85.18
2022-12-01T08:48:58.548Z,85.45
2022-12-01T08:51:26.392Z,85.35
2022-12-01T08:53:54.961Z,85.17
2022-12-01T08:56:28.221Z,84.20
2022-12-01T08:58:55.279Z,83.69
2022-12-01T09:01:22.940Z,83.48
2022-12-01T09:04:05.487Z,82.99
2022-12-01T09:06:41.558Z,82.92
2022-12-01T09:09:10.550Z,82.39
2022-12-01T09:11:37.390Z,81.43
2022-12-01T09:14:07.187Z,81.70
2022-12-01T09:16:33.889Z,81.25
2022-12-01T09:19:00.539Z,80.56
2022-12-01T09:21:33.726Z,81.02
2022-12-01T09:24:01.712Z,80.69
2022-12-01T09:26:29.206Z,81.06
2022-12-01T09:28:58.924Z,80.54
2022-12-01T09:31:25.964Z,79.96
2022-12-01T09:33:57.308Z,79.09
2022-12-01T09:36:24.556Z,79.52
2022-12-01T09:38:51.246Z,79.90
2022-12-01T09:41:24.443Z,78.78
2022-12-01T09:44:05.847Z,78.15
2022-12-01T09:46:37.532Z,77.84
2022-12-01T09:49:06.701Z,78.71
2022-12-01T09:51:36.324Z,78.50
2022-12-01T09:54:07.002Z,78.12
2022-12-01T09:56:42.582Z,77.99
2022-12-01T09:59:17.936Z,78.64
2022-12-01T10:01:48.201Z,77.65
2022-12-01T10:04:25.424Z,76.35
2022-12-01T10:07:02.278Z,76.84
2022-12-01T10:09:31.900Z,75.94
2022-12-01T10:12:07.079Z,76.21
2022-12-01T10:14:36.605Z,76.11
2022-12-01T10:17:18.750Z,75.33
2022-12-01T10:19:51.528Z,75.99
2022-12-01T10:22:27.233Z,75.16
2022-12-01T10:25:17.160Z,74.68
2022-12-01T10:28:20.986Z,74.47
2022-12-01T10:30:50.939Z,74.24
2022-12-01T10:33:35.291Z,72.28
2022-12-01T10:36:01.970Z,73.90
2022-12-01T10:38:35.851Z,74.36
2022-12-01T10:41:05.400Z,73.63
2022-12-01T10:43:39.242Z,73.85
2022-12-01T10:46:32.325Z,73.56
2022-12-01T10:49:06.759Z,74.15
2022-12-01T10:51:45.744Z,74.25
2022-12-01T10:54:12.652Z,74.20
2022-12-01T10:56:45.790Z,73.42
2022-12-01T10:59:28.862Z,73.59
2022-12-01T11:01:57.607Z,73.41
2022-12-01T11:04:45.336Z,73.55
2022-12-01T11:07:20.556Z,72.89
2022-12-01T11:10:00.319Z,73.02
2022-12-01T11:12:27.226Z,72.38
2022-12-01T11:14:55.999Z,71.21
2022-12-01T11:17:22.598Z,70.57
2022-12-01T11:19:49.657Z,70.28
2022-12-01T11:22:32.049Z,70.23
2022-12-01T11:25:04.959Z,70.57
2022-12-01T11:28:01.899Z,70.47
2022-12-01T11:30:30.552Z,70.64
2022-12-01T11:33:03.305Z,70.21
2022-12-01T11:35:33.389Z,69.92
2022-12-01T11:40:56.849Z,70.28
2022-12-01T11:43:36.478Z,69.90
2022-12-01T11:46:06.721Z,69.39
2022-12-01T11:48:36.282Z,68.96
2022-12-01T11:51:08.051Z,68.65
2022-12-01T11:54:05.042Z,68.51
2022-12-01T11:56:32.135Z,68.41
2022-12-01T11:59:08.214Z,68.47
2022-12-01T12:01:38.263Z,68.54
2022-12-01T12:04:29.363Z,68.60
2022-12-01T12:07:13.510Z,68.83
2022-12-01T12:09:46.481Z,68.30
2022-12-01T12:12:45.676Z,68.42
2022-12-01T12:15:31.300Z,68.69
2022-12-01T12:18:16.561Z,68.34
2022-12-01T12:20:58.477Z,68.33
2022-12-01T12:23:57.977Z,68.32
2022-12-01T12:26:32.257Z,68.68
2022-12-01T12:29:23.276Z,68.56
2022-12-01T12:32:32.550Z,68.76
2022-12-01T12:35:28.155Z,68.55
2022-12-01T12:38:24.036Z,68.82
2022-12-01T12:41:24.904Z,68.68
2022-12-01T12:44:12.966Z,68.43
2022-12-01T12:47:17.090Z,68.53
2022-12-01T12:49:53.088Z,68.29
2022-12-01T12:52:31.317Z,68.32
2022-12-01T12:55:04.059Z,68.45
2022-12-01T12:57:35.317Z,68.52
2022-12-01T13:00:20.848Z,68.94
2022-12-01T13:03:07.649Z,69.29
2022-12-01T13:05:44.235Z,69.04
2022-12-01T13:08:24.551Z,68.87
2022-12-01T13:11:02.845Z,69.19
2022-12-01T13:13:48.273Z,69.69
2022-12-01T13:16:24.737Z,70.25
2022-12-01T13:19:03.175Z,70.37
2022-12-01T13:21:37.353Z,71.09
2022-12-01T13:24:05.237Z,71.40
2022-12-01T13:26:36.342Z,72.14
2022-12-01T13:29:06.436Z,72.56
2022-12-01T13:31:51.051Z,73.01
2022-12-01T13:34:40.989Z,73.49
2022-12-01T13:37:10.120Z,74.00
2022-12-01T13:39:39.130Z,74.64
2022-12-01T13:42:38.170Z,75.92
2022-12-01T13:45:24.984Z,76.25
2022-12-01T13:48:26.966Z,76.40
2022-12-01T13:51:23.636Z,76.77
2022-12-01T13:54:06.417Z,76.70
2022-12-01T13:56:46.799Z,76.77
2022-12-01T13:59:40.211Z,76.62
2022-12-01T14:02:16.046Z,76.95
2022-12-01T14:04:42.752Z,77.35
2022-12-01T14:07:28.130Z,78.04
2022-12-01T14:10:08.634Z,78.51
2022-12-01T14:12:37.919Z,78.68
2022-12-01T14:15:19.719Z,79.70
2022-12-01T14:17:46.660Z,79.42
2022-12-01T14:20:13.259Z,79.37
2022-12-01T14:22:46.308Z,79.78
2022-12-01T14:25:22.483Z,80.93
2022-12-01T14:27:55.079Z,81.15
2022-12-01T14:30:45.091Z,82.07
2022-12-01T14:33:39.756Z,82.49
2022-12-01T14:36:36.316Z,83.74
2022-12-01T14:39:24.939Z,83.68
2022-12-01T14:42:00.305Z,83.47
2022-12-01T14:44:33.135Z,83.93
2022-12-01T14:47:14.405Z,85.55
2022-12-01T14:50:01.301Z,85.41
2022-12-01T14:52:50.957Z,85.88
2022-12-01T14:55:22.196Z,85.99
2022-12-01T14:57:51.698Z,86.41
2022-12-01T15:00:22.281Z,87.79
2022-12-01T15:02:48.782Z,87.33
2022-12-01T15:05:21.388Z,88.99
2022-12-01T15:07:50.848Z,89.04
2022-12-01T15:10:34.574Z,89.36
2022-12-01T15:13:28.478Z,90.28
2022-12-01T15:16:04.227Z,89.66
2022-12-01T15:18:36.805Z,89.91
2022-12-01T15:21:10.203Z,90.41
2022-12-01T15:23:37.255Z,90.59
2022-12-01T15:26:04.364Z,90.95
2022-12-01T15:28:33.936Z,91.31
2022-12-01T15:31:05.149Z,91.86
2022-12-01T15:33:37.183Z,92.57
2022-12-01T15:36:04.717Z,92.82
2022-12-01T15:38:34.482Z,92.51
2022-12-01T15:43:58.274Z,92.91
2022-12-01T15:46:30.566Z,93.02
2022-12-01T15:49:17.966Z,93.27
2022-12-01T15:51:45.340Z,93.40
2022-12-01T15:54:38.774Z,93.32
2022-12-01T15:57:06.243Z,93.47
2022-12-01T15:59:35.794Z,93.73
2022-12-01T16:02:15.760Z,93.82
2022-12-01T16:04:43.498Z,94.28
2022-12-01T16:07:11.648Z,94.35
2022-12-01T16:09:42.615Z,94.45
2022-12-01T16:12:09.130Z,94.45
2022-12-01T16:14:37.689Z,94.47
2022-12-01T16:17:08.355Z,94.44
2022-12-01T16:19:36.056Z,94.32
2022-12-01T16:22:11.778Z,94.40
2022-12-01T16:24:54.789Z,94.66
2022-12-01T16:27:31.861Z,94.52
2022-12-01T16:30:02.177Z,94.83
2022-12-01T16:32:41.281Z,94.82
2022-12-01T16:35:27.578Z,94.97
2022-12-01T16:37:55.289Z,95.11
2022-12-01T16:40:22.308Z,95.08
2022-12-01T16:42:50.088Z,95.33
2022-12-01T16:45:20.660Z,95.29
2022-12-01T16:47:48.709Z,95.35
2022-12-01T16:50:17.672Z,95.38
2022-12-01T16:52:45.569Z,95.35
2022-12-01T16:55:45.554Z,95.38
2022-12-01T16:58:12.210Z,95.37
2022-12-01T17:00:38.804Z,95.39
2022-12-01T17:03:06.192Z,95.28
2022-12-01T17:05:34.067Z,95.25
2022-12-01T17:08:00.741Z,95.17
2022-12-01T17:10:27.497Z,95.21
2022-12-01T17:12:54.261Z,95.34
2022-12-01T17:15:20.948Z,95.40
2022-12-01T17:17:47.723Z,95.21
2022-12-01T17:20:14.607Z,95.29
2022-12-01T17:22:41.246Z,95.33
2022-12-01T17:25:09.781Z,95.33
2022-12-01T17:27:38.154Z,95.50
2022-12-01T17:30:06.596Z,95.48
2022-12-01T17:32:35.083Z,95.53
2022-12-01T17:35:01.909Z,95.56
2022-12-01T17:37:28.534Z,95.43
2022-12-01T17:40:00.543Z,95.55
2022-12-01T17:42:27.092Z,95.61
2022-12-01T17:44:53.750Z,95.75
2022-12-01T17:47:23.063Z,95.83
2022-12-01T17:49:49.653Z,96.12
2022-12-01T17:52:16.383Z,95.90
2022-12-01T17:54:42.988Z,96.04
2022-12-01T17:57:09.745Z,95.87
2022-12-01T17:59:37.053Z,95.95
2022-12-01T18:02:04.628Z,96.08
2022-12-01T18:04:31.697Z,96.18
2022-12-01T18:06:58.737Z,96.16
2022-12-01T18:09:25.491Z,96.26
2022-12-01T18:11:54.377Z,96.28
2022-12-01T18:14:21.186Z,96.34
2022-12-01T18:16:47.882Z,96.35
2022-12-01T18:19:14.908Z,96.24
2022-12-01T18:21:42.811Z,96.28
2022-12-01T18:24:10.272Z,96.21
2022-12-01T18:26:39.084Z,96.43
2022-12-01T18:29:13.492Z,96.35
2022-12-01T18:31:40.202Z,96.42
2022-12-01T18:34:07.602Z,96.46
2022-12-01T18:36:36.656Z,96.35
2022-12-01T18:39:05.649Z,96.56
2022-12-01T18:41:32.441Z,96.62
2022-12-01T18:43:59.110Z,96.61
2022-12-01T18:46:25.987Z,96.71
2022-12-01T18:49:00.457Z,96.74
2022-12-01T18:51:27.170Z,96.65
2022-12-01T18:53:55.613Z,96.83
2022-12-01T18:56:22.366Z,96.73
2022-12-01T18:58:58.372Z,96.57
2022-12-01T19:01:32.452Z,96.74
2022-12-01T19:03:59.933Z,96.77
2022-12-01T19:06:28.451Z,96.71
2022-12-01T19:08:55.919Z,96.79
2022-12-01T19:11:22.713Z,96.88
2022-12-01T19:13:49.580Z,96.49
2022-12-01T19:16:26.017Z,96.66
2022-12-01T19:18:52.859Z,96.76
2022-12-01T19:21:20.558Z,96.73
2022-12-01T19:23:47.544Z,96.67
2022-12-01T19:26:17.751Z,96.85
2022-12-01T19:28:45.724Z,96.79
2022-12-01T19:31:15.604Z,96.73
2022-12-01T19:33:42.602Z,96.65
2022-12-01T19:36:15.760Z,96.67
2022-12-01T19:38:42.647Z,96.68
2022-12-01T19:41:09.659Z,96.91
2022-12-01T19:43:37.503Z,96.84
2022-12-01T19:46:15.785Z,96.82
2022-12-01T19:48:43.262Z,96.79
2022-12-01T19:51:21.067Z,96.82
2022-12-01T19:53:48.107Z,96.85
2022-12-01T19:56:15.172Z,96.94
2022-12-01T19:58:41.837Z,96.99
2022-12-01T20:01:11.912Z,97.10
2022-12-01T20:03:40.799Z,97.14
2022-12-01T20:06:11.257Z,97.37
2022-12-01T20:08:38.782Z,97.06
2022-12-01T20:11:06.396Z,96.86
2022-12-01T20:13:34.717Z,97.03
2022-12-01T20:16:10.654Z,97.04
2022-12-01T20:18:38.565Z,96.90
2022-12-01T20:21:06.494Z,97.10
2022-12-01T20:23:33.756Z,97.12
2022-12-01T20:26:02.352Z,97.13
2022-12-01T20:28:29.078Z,97.01
2022-12-01T20:30:55.952Z,97.09
2022-12-01T20:33:23.160Z,97.04
2022-12-01T20:35:49.892Z,97.03
2022-12-01T20:38:28.731Z,97.10
2022-12-01T20:40:55.730Z,97.28
2022-12-01T20:43:22.398Z,97.16
2022-12-01T20:45:49.231Z,97.17
2022-12-01T20:48:17.871Z,96.97
2022-12-01T20:50:49.446Z,97.30
2022-12-01T20:53:16.039Z,97.06
2022-12-01T20:55:42.996Z,96.91
2022-12-01T20:58:10.066Z,96.93
2022-12-01T21:00:45.779Z,96.77
2022-12-01T21:03:13.203Z,96.81
2022-12-01T21:05:42.170Z,96.84
2022-12-01T21:08:11.236Z,96.64
2022-12-01T21:10:44.880Z,96.69
2022-12-01T21:13:46.432Z,96.76
2022-12-01T21:16:15.925Z,96.69
2022-12-01T21:18:42.478Z,96.51
2022-12-01T21:21:31.640Z,96.69
2022-12-01T21:24:07.520Z,96.33
2022-12-01T21:26:36.926Z,96.49
2022-12-01T21:29:26.979Z,96.63
2022-12-01T21:31:59.938Z,96.48
2022-12-01T21:34:28.747Z,96.60
2022-12-01T21:37:00.006Z,96.45
2022-12-01T21:39:26.721Z,96.66
2022-12-01T21:41:56.244Z,96.48
2022-12-01T21:44:29.386Z,96.66
2022-12-01T21:46:57.954Z,96.63
2022-12-01T21:49:45.428Z,96.88
2022-12-01T21:52:42.209Z,96.75
2022-12-01T21:55:14.561Z,96.80
2022-12-01T21:57:45.300Z,96.86
2022-12-01T22:00:31.854Z,96.90
2022-12-01T22:03:27.721Z,97.00
2022-12-01T22:06:29.351Z,96.97
2022-12-01T22:08:50.179Z,97.03
2022-12-01T22:11:28.098Z,97.22
2022-12-01T22:14:00.657Z,97.55
2022-12-01T22:16:30.208Z,97.27
2022-12-01T22:19:20.984Z,97.64
2022-12-01T22:21:49.258Z,97.71
2022-12-01T22:24:34.269Z,97.91
2022-12-01T22:27:34.477Z,98.19
2022-12-01T22:30:07.296Z,98.14
2022-12-01T22:32:45.207Z,98.40
2022-12-01T22:35:20.453Z,98.63
2022-12-01T22:37:53.225Z,98.61
2022-12-01T22:40:40.784Z,98.94
2022-12-01T22:43:50.653Z,99.09
2022-12-01T22:46:33.183Z,99.01
2022-12-01T22:49:20.813Z,99.24
2022-12-01T22:51:51.246Z,99.05
2022-12-01T22:54:17.831Z,99.18
2022-12-01T22:56:47.046Z,99.49
2022-12-01T22:59:35.237Z,99.45
2022-12-01T23:02:17.893Z,99.32
2022-12-01T23:04:47.924Z,99.40
2022-12-01T23:07:30.015Z,99.50
2022-12-01T23:10:04.674Z,99.44
2022-12-01T23:12:33.671Z,99.51
2022-12-01T23:15:22.222Z,99.55
2022-12-01T23:17:49.991Z,99.67
2022-12-01T23:20:28.334Z,99.60
2022-12-01T23:22:56.496Z,99.37
2022-12-01T23:25:24.562Z,99.66
2022-12-01T23:27:53.382Z,99.35
2022-12-01T23:30:21.721Z,99.36
2022-12-01T23:33:16.692Z,99.43
2022-12-01T23:36:15.683Z,99.58
2022-12-01T23:38:45.394Z,99.37
2022-12-01T23:41:32.243Z,99.70
2022-12-01T23:44:02.168Z,99.55
2022-12-01T23:46:29.152Z,99.62
2022-12-01T23:49:01.731Z,99.69
2022-12-01T23:51:33.220Z,99.52
2022-12-01T23:54:04.370Z,99.24
2022-12-01T23:56:31.819Z,99.29
2022-12-01T23:59:00.971Z,99.24
